createdAt,value
2018-11-27T00:02:48.831Z,23.97
2018-11-27T00:06:57.162Z,23.53
2018-11-27T00:11:04.765Z,26.33
2018-11-27T00:15:15.601Z,26.50
2018-11-27T00:19:23.170Z,28.60
2018-11-27T00:23:30.567Z,28.40
2018-11-27T00:27:38.005Z,25.43
2018-11-27T00:31:46.401Z,26.63
2018-11-27T00:35:53.799Z,26.93
2018-11-27T00:40:01.198Z,27.13
2018-11-27T00:44:09.718Z,24.27
2018-11-27T00:48:17.104Z,27.90
2018-11-27T00:52:27.144Z,25.77
2018-11-27T00:56:34.656Z,26.20
2018-11-27T01:00:42.157Z,25.27
2018-11-27T01:04:49.509Z,25.33
2018-11-27T01:08:56.932Z,24.13
2018-11-27T01:13:04.308Z,24.67
2018-11-27T01:17:11.734Z,24.27
2018-11-27T01:21:19.175Z,23.33
2018-11-27T01:25:26.567Z,26.40
2018-11-27T01:29:33.949Z,24.53
2018-11-27T01:33:41.291Z,27.93
2018-11-27T01:37:49.456Z,24.27
2018-11-27T01:41:56.876Z,27.57
2018-11-27T01:46:04.457Z,27.67
2018-11-27T01:50:13.841Z,24.47
2018-11-27T01:54:21.580Z,27.30
2018-11-27T01:58:29.025Z,25.23
2018-11-27T02:02:36.554Z,24.73
2018-11-27T02:06:44.077Z,27.83
2018-11-27T02:10:51.515Z,24.83
2018-11-27T02:14:59.058Z,27.33
2018-11-27T02:19:06.490Z,27.13
2018-11-27T02:23:14.108Z,29.27
2018-11-27T02:27:21.665Z,28.67
2018-11-27T02:31:29.137Z,27.03
2018-11-27T02:35:36.816Z,31.03
2018-11-27T02:39:44.359Z,30.13
2018-11-27T02:43:51.787Z,28.30
2018-11-27T02:47:59.194Z,28.63
2018-11-27T02:52:06.838Z,30.50
2018-11-27T02:56:14.195Z,28.53
2018-11-27T03:00:28.665Z,28.43
2018-11-27T03:04:36.162Z,29.13
2018-11-27T03:08:44.276Z,31.40
2018-11-27T03:12:52.113Z,29.43
2018-11-27T03:16:59.515Z,31.13
2018-11-27T03:21:07.724Z,28.73
2018-11-27T03:25:22.832Z,27.87
2018-11-27T03:29:30.380Z,28.97
2018-11-27T03:33:37.790Z,26.30
2018-11-27T03:37:47.234Z,29.90
2018-11-27T03:41:54.000Z,28.63
2018-11-27T03:46:01.347Z,28.20
2018-11-27T03:50:15.390Z,29.07
2018-11-27T03:54:22.811Z,27.97
2018-11-27T03:58:31.122Z,31.13
2018-11-27T04:02:38.564Z,31.37
2018-11-27T04:06:46.083Z,31.83
2018-11-27T04:10:53.436Z,28.40
2018-11-27T04:15:00.788Z,31.80
2018-11-27T04:19:09.099Z,30.47
2018-11-27T04:23:16.649Z,32.17
2018-11-27T04:27:24.053Z,31.70
2018-11-27T04:31:31.639Z,35.97
2018-11-27T04:35:39.075Z,32.53
2018-11-27T04:39:46.520Z,34.43
2018-11-27T04:43:53.988Z,33.87
2018-11-27T04:48:01.481Z,33.80
2018-11-27T04:52:09.365Z,31.93
2018-11-27T04:56:16.858Z,31.90
2018-11-27T05:00:30.380Z,33.03
2018-11-27T05:04:37.812Z,28.83
2018-11-27T05:08:45.215Z,35.93
2018-11-27T05:12:52.612Z,34.87
2018-11-27T05:17:00.006Z,32.30
2018-11-27T05:21:07.548Z,31.57
2018-11-27T05:25:19.603Z,31.97
2018-11-27T05:29:27.088Z,33.83
2018-11-27T05:33:34.521Z,31.87
2018-11-27T05:37:42.713Z,29.63
2018-11-27T05:41:50.239Z,31.27
2018-11-27T05:45:58.548Z,32.17
2018-11-27T05:50:06.811Z,37.23
2018-11-27T05:54:15.062Z,34.07
2018-11-27T05:58:22.509Z,31.23
2018-11-27T06:02:29.995Z,31.40
2018-11-27T06:06:37.408Z,34.07
2018-11-27T06:10:44.791Z,32.90
2018-11-27T06:14:52.166Z,32.20
2018-11-27T06:18:59.572Z,33.70
2018-11-27T06:23:07.188Z,32.70
2018-11-27T06:27:14.579Z,35.57
2018-11-27T06:31:22.023Z,39.93
2018-11-27T06:35:40.755Z,34.30
2018-11-27T06:39:48.302Z,33.47
2018-11-27T06:43:58.981Z,36.77
2018-11-27T06:48:06.659Z,34.10
2018-11-27T06:52:14.040Z,33.17
2018-11-27T06:56:21.455Z,33.17
2018-11-27T07:00:31.875Z,33.37
2018-11-27T07:04:39.385Z,32.50
2018-11-27T07:08:46.836Z,28.50
2018-11-27T07:12:56.217Z,31.70
2018-11-27T07:17:03.607Z,30.03
2018-11-27T07:21:11.061Z,31.10
2018-11-27T07:25:18.888Z,29.80
2018-11-27T07:29:26.340Z,30.40
2018-11-27T07:33:33.726Z,33.00
2018-11-27T07:37:41.291Z,31.33
2018-11-27T07:41:48.785Z,31.60
2018-11-27T07:45:57.605Z,26.77
2018-11-27T07:50:05.049Z,27.53
2018-11-27T07:54:13.538Z,29.37
2018-11-27T07:58:21.028Z,28.70
2018-11-27T08:02:28.453Z,32.40
2018-11-27T08:06:35.816Z,28.70
2018-11-27T08:10:44.379Z,31.93
2018-11-27T08:14:51.759Z,29.57
2018-11-27T08:18:59.106Z,33.73
2018-11-27T08:23:07.474Z,33.30
2018-11-27T08:27:14.849Z,33.10
2018-11-27T08:31:22.260Z,30.23
2018-11-27T08:35:30.988Z,31.40
2018-11-27T08:39:38.429Z,31.13
2018-11-27T08:43:45.851Z,30.57
2018-11-27T08:47:54.689Z,29.17
2018-11-27T08:52:02.346Z,31.20
2018-11-27T08:56:10.508Z,32.27
2018-11-27T09:00:27.561Z,29.40
2018-11-27T09:04:35.635Z,30.60
2018-11-27T09:08:44.020Z,28.93
2018-11-27T09:12:52.660Z,31.03
2018-11-27T09:17:00.370Z,32.07
2018-11-27T09:21:08.327Z,33.37
2018-11-27T09:25:16.356Z,33.57
2018-11-27T09:29:24.815Z,29.30
2018-11-27T09:33:32.463Z,31.67
2018-11-27T09:37:40.380Z,31.37
2018-11-27T09:41:51.739Z,32.37
2018-11-27T09:45:59.154Z,31.37
2018-11-27T09:50:10.188Z,34.70
2018-11-27T09:54:17.836Z,34.30
2018-11-27T09:58:25.813Z,34.53
2018-11-27T10:02:33.523Z,34.17
2018-11-27T10:06:41.037Z,36.33
2018-11-27T10:10:48.618Z,34.23
2018-11-27T10:14:56.229Z,36.30
2018-11-27T10:19:06.610Z,33.37
2018-11-27T10:23:16.043Z,36.47
2018-11-27T10:27:23.802Z,34.53
2018-11-27T10:31:31.284Z,33.53
2018-11-27T10:35:57.708Z,33.83
2018-11-27T10:40:05.880Z,36.97
2018-11-27T10:44:13.722Z,33.97
2018-11-27T10:48:22.542Z,31.30
2018-11-27T10:52:31.200Z,36.70
2018-11-27T10:56:38.890Z,34.13
2018-11-27T11:01:03.800Z,35.70
2018-11-27T11:05:11.738Z,31.07
2018-11-27T11:09:19.549Z,35.43
2018-11-27T11:13:27.890Z,31.97
2018-11-27T11:17:37.410Z,34.67
2018-11-27T11:21:44.832Z,34.77
2018-11-27T11:25:53.185Z,36.30
2018-11-27T11:30:00.776Z,35.17
2018-11-27T11:34:09.881Z,35.97
2018-11-27T11:38:18.036Z,35.27
2018-11-27T11:42:27.515Z,39.47
2018-11-27T11:46:35.363Z,36.40
2018-11-27T11:50:43.546Z,32.53
2018-11-27T11:54:54.095Z,34.40
2018-11-27T11:59:01.889Z,35.20
2018-11-27T12:03:11.108Z,31.17
2018-11-27T12:07:18.695Z,35.43
2018-11-27T12:11:26.378Z,36.37
2018-11-27T12:15:37.381Z,33.17
2018-11-27T12:19:45.581Z,34.23
2018-11-27T12:23:54.287Z,36.30
2018-11-27T12:28:14.892Z,39.27
2018-11-27T12:32:30.989Z,35.60
2018-11-27T12:36:38.441Z,34.53
2018-11-27T12:40:46.201Z,40.87
2018-11-27T12:45:00.049Z,34.43
2018-11-27T12:49:13.429Z,37.83
2018-11-27T12:53:22.644Z,37.27
2018-11-27T12:57:30.213Z,34.67
2018-11-27T13:01:39.838Z,36.27
2018-11-27T13:05:57.435Z,38.33
2018-11-27T13:10:05.988Z,35.27
2018-11-27T13:14:21.684Z,37.73
2018-11-27T13:18:30.655Z,35.17
2018-11-27T13:22:50.592Z,38.30
2018-11-27T13:26:58.121Z,36.90
2018-11-27T13:31:12.517Z,38.60
2018-11-27T13:35:27.358Z,35.60
2018-11-27T13:39:43.417Z,37.87
2018-11-27T13:43:53.593Z,40.13
2018-11-27T13:48:06.205Z,41.07
2018-11-27T13:52:12.946Z,39.97
2018-11-27T13:56:29.004Z,40.50
2018-11-27T14:00:43.083Z,38.77
2018-11-27T14:04:53.732Z,37.43
2018-11-27T14:09:05.818Z,33.87
2018-11-27T14:13:25.165Z,33.97
2018-11-27T14:17:34.596Z,36.80
2018-11-27T14:21:45.820Z,38.37
2018-11-27T14:25:54.379Z,37.20
2018-11-27T14:30:08.101Z,39.33
2018-11-27T14:34:16.209Z,38.17
2018-11-27T14:38:25.976Z,33.90
2018-11-27T14:42:34.445Z,36.83
2018-11-27T14:46:44.678Z,38.10
2018-11-27T14:50:52.224Z,37.40
2018-11-27T14:54:59.840Z,38.23
2018-11-27T14:59:07.457Z,36.37
2018-11-27T15:03:19.191Z,37.63
2018-11-27T15:07:27.143Z,37.17
2018-11-27T15:11:35.898Z,37.73
2018-11-27T15:15:46.255Z,42.03
2018-11-27T15:19:54.139Z,40.47
2018-11-27T15:24:01.848Z,40.27
2018-11-27T15:28:09.882Z,36.60
2018-11-27T15:32:17.790Z,34.63
2018-11-27T15:36:25.535Z,33.83
2018-11-27T15:40:33.843Z,34.13
2018-11-27T15:44:41.647Z,35.30
2018-11-27T15:48:50.030Z,32.90
2018-11-27T15:52:58.645Z,35.40
2018-11-27T15:57:06.443Z,33.67
2018-11-27T16:01:14.423Z,34.77
2018-11-27T16:05:27.187Z,35.33
2018-11-27T16:09:35.247Z,33.77
2018-11-27T16:13:43.282Z,31.60
2018-11-27T16:17:53.835Z,35.80
2018-11-27T16:22:02.952Z,31.03
2018-11-27T16:26:10.785Z,35.23
2018-11-27T16:30:32.103Z,31.80
2018-11-27T16:34:39.715Z,35.03
2018-11-27T16:38:47.546Z,33.33
2018-11-27T16:42:55.720Z,34.97
2018-11-27T16:47:05.968Z,33.80
2018-11-27T16:51:15.936Z,35.97
2018-11-27T16:55:25.662Z,30.00
2018-11-27T16:59:34.234Z,31.00
2018-11-27T17:03:42.383Z,32.97
2018-11-27T17:07:52.146Z,33.60
2018-11-27T17:12:00.271Z,37.37
2018-11-27T17:16:08.701Z,36.20
2018-11-27T17:20:30.853Z,33.60
2018-11-27T17:24:41.497Z,34.30
2018-11-27T17:28:50.822Z,31.47
2018-11-27T17:33:03.420Z,30.33
2018-11-27T17:37:11.197Z,31.50
2018-11-27T17:41:19.046Z,30.00
2018-11-27T17:45:27.118Z,31.83
2018-11-27T17:49:38.043Z,30.43
2018-11-27T17:53:51.457Z,33.10
2018-11-27T17:58:04.720Z,33.43
2018-11-27T18:02:45.757Z,32.47
2018-11-27T18:06:59.851Z,31.70
2018-11-27T18:11:10.433Z,30.70
2018-11-27T18:15:20.263Z,32.90
2018-11-27T18:19:27.882Z,32.80
2018-11-27T18:23:36.300Z,33.90
2018-11-27T18:27:46.097Z,31.63
2018-11-27T18:31:53.878Z,33.50
2018-11-27T18:36:01.733Z,29.60
2018-11-27T18:40:11.840Z,33.83
2018-11-27T18:44:19.757Z,35.60
2018-11-27T18:48:27.487Z,31.33
2018-11-27T18:52:35.453Z,35.17
2018-11-27T18:56:44.803Z,31.57
2018-11-27T19:00:52.682Z,31.67
2018-11-27T19:05:01.418Z,32.97
2018-11-27T19:09:12.356Z,35.40
2018-11-27T19:13:20.100Z,32.40
2018-11-27T19:17:36.698Z,33.77
2018-11-27T19:21:47.721Z,28.43
2018-11-27T19:25:55.690Z,32.67
2018-11-27T19:30:03.532Z,33.77
2018-11-27T19:34:11.519Z,33.77
2018-11-27T19:38:21.989Z,33.23
2018-11-27T19:42:29.919Z,36.80
2018-11-27T19:46:38.134Z,32.20
2018-11-27T19:50:58.873Z,32.07
2018-11-27T19:55:14.614Z,33.70
2018-11-27T19:59:22.507Z,30.63
2018-11-27T20:03:30.421Z,36.07
2018-11-27T20:07:39.132Z,34.13
2018-11-27T20:11:47.029Z,34.87
2018-11-27T20:15:54.850Z,34.97
2018-11-27T20:20:02.930Z,33.80
2018-11-27T20:24:12.651Z,37.10
2018-11-27T20:28:20.562Z,33.60
2018-11-27T20:32:35.579Z,34.17
2018-11-27T20:36:45.976Z,38.03
2018-11-27T20:40:56.622Z,39.17
2018-11-27T20:45:06.051Z,35.63
2018-11-27T20:49:13.854Z,34.73
2018-11-27T20:53:21.861Z,38.93
2018-11-27T20:57:29.720Z,36.03
2018-11-27T21:01:37.655Z,37.90
2018-11-27T21:05:45.402Z,35.97
2018-11-27T21:09:53.111Z,38.67
2018-11-27T21:14:01.057Z,37.67
2018-11-27T21:18:10.328Z,37.80
2018-11-27T21:22:18.184Z,38.60
2018-11-27T21:26:26.148Z,37.73
2018-11-27T21:30:36.318Z,39.13
2018-11-27T21:34:44.405Z,37.63
2018-11-27T21:38:55.614Z,38.93
2018-11-27T21:43:12.818Z,39.93
2018-11-27T21:47:22.341Z,48.63
2018-11-27T21:51:31.026Z,39.73
2018-11-27T21:55:43.609Z,43.73
2018-11-27T22:00:06.399Z,45.27
2018-11-27T22:04:15.568Z,43.47
2018-11-27T22:08:27.986Z,41.33
2018-11-27T22:12:40.638Z,42.40
2018-11-27T22:16:58.328Z,47.33
2018-11-27T22:21:07.749Z,43.57
2018-11-27T22:25:16.323Z,41.17
2018-11-27T22:29:25.127Z,42.27
2018-11-27T22:33:33.499Z,42.77
2018-11-27T22:37:43.512Z,40.80
2018-11-27T22:41:54.976Z,40.07
2018-11-27T22:46:03.307Z,46.83
2018-11-27T22:50:21.278Z,40.33
2018-11-27T22:54:29.355Z,39.50
2018-11-27T22:58:38.366Z,39.80
2018-11-27T23:02:50.470Z,40.13
2018-11-27T23:07:03.410Z,38.80
2018-11-27T23:11:14.760Z,41.50
2018-11-27T23:15:27.542Z,46.43
2018-11-27T23:19:35.673Z,42.20
2018-11-27T23:23:44.509Z,43.50
2018-11-27T23:27:55.618Z,43.83
2018-11-27T23:32:09.977Z,40.63
2018-11-27T23:36:29.370Z,40.17
2018-11-27T23:40:40.543Z,36.77
2018-11-27T23:44:49.734Z,42.57
2018-11-27T23:48:57.513Z,43.17
2018-11-27T23:53:11.664Z,41.73
2018-11-27T23:57:20.115Z,37.90
